Time,TemperatureF,DewpointF,PressureIn,WindDirection,WindDirectionDegrees,WindSpeedMPH,WindSpeedGustMPH,Humidity,HourlyPrecipIn,Conditions,Clouds,dailyrainin,SoftwareType,DateUTC
2013-06-20 00:02:00,76.0,-99.9,30.08,SE,144,3.0,5.0,-999,-99.99,,,-99.99,,2013-06-20 04:02:00,
2013-06-20 00:12:00,76.0,-99.9,30.08,SSE,156,2.0,3.0,-999,-99.99,,,-99.99,,2013-06-20 04:12:00,
2013-06-20 00:23:00,76.0,-99.9,30.07,SE,125,3.0,4.0,-999,-99.99,,,-99.99,,2013-06-20 04:23:00,
2013-06-20 00:34:00,76.0,-99.9,30.08,East,89,4.0,9.0,-999,-99.99,,,-99.99,,2013-06-20 04:34:00,
2013-06-20 00:44:00,76.0,-99.9,30.08,ESE,112,4.0,6.0,-999,-99.99,,,-99.99,,2013-06-20 04:44:00,
2013-06-20 00:54:00,76.0,-99.9,30.08,ESE,109,6.0,8.0,-999,-99.99,,,-99.99,,2013-06-20 04:54:00,
2013-06-20 01:02:00,76.0,-99.9,30.08,ESE,109,6.0,8.0,-999,-99.99,,,-99.99,,2013-06-20 05:02:00,
2013-06-20 01:12:00,76.0,-99.9,30.07,ESE,112,5.0,6.0,-999,-99.99,,,-99.99,,2013-06-20 05:12:00,
2013-06-20 01:22:00,76.0,-99.9,30.07,East,100,5.0,7.0,-999,-99.99,,,-99.99,,2013-06-20 05:22:00,
2013-06-20 01:33:00,76.0,-99.9,30.07,ESE,115,5.0,10.0,-999,-99.99,,,-99.99,,2013-06-20 05:33:00,
2013-06-20 01:44:00,76.0,-99.9,30.07,ESE,115,5.0,10.0,-999,-99.99,,,-99.99,,2013-06-20 05:44:00,
2013-06-20 01:53:00,76.0,-99.9,30.06,SE,124,7.0,8.0,-999,-99.99,,,-99.99,,2013-06-20 05:53:00,
2013-06-20 02:02:00,77.0,-99.9,30.06,ESE,117,6.0,9.0,-999,-99.99,,,-99.99,,2013-06-20 06:02:00,
2013-06-20 02:12:00,77.0,-99.9,30.06,ESE,123,6.0,8.0,-999,-99.99,,,-99.99,,2013-06-20 06:12:00,
2013-06-20 02:22:00,77.0,-99.9,30.06,ESE,116,5.0,10.0,-999,-99.99,,,-99.99,,2013-06-20 06:22:00,
2013-06-20 02:34:00,77.0,-99.9,30.06,East,98,5.0,8.0,-999,-99.99,,,-99.99,,2013-06-20 06:34:00,
2013-06-20 02:43:00,76.0,-99.9,30.06,ENE,77,5.0,7.0,-999,-99.99,,,-99.99,,2013-06-20 06:43:00,
2013-06-20 02:53:00,76.0,-99.9,30.06,East,95,4.0,7.0,-999,-99.99,,,-99.99,,2013-06-20 06:53:00,
2013-06-20 03:02:00,76.0,-99.9,30.06,East,79,6.0,9.0,-999,-99.99,,,-99.99,,2013-06-20 07:02:00,
2013-06-20 03:12:00,76.0,-99.9,30.06,ENE,73,4.0,7.0,-999,-99.99,,,-99.99,,2013-06-20 07:12:00,
2013-06-20 03:23:00,76.0,-99.9,30.06,ENE,73,4.0,7.0,-999,-99.99,,,-99.99,,2013-06-20 07:23:00,
2013-06-20 03:34:00,75.0,-99.9,30.06,ENE,76,5.0,8.0,-999,-99.99,,,-99.99,,2013-06-20 07:34:00,
2013-06-20 03:44:00,75.0,-99.9,30.06,ENE,74,6.0,9.0,-999,-99.99,,,-99.99,,2013-06-20 07:44:00,
2013-06-20 03:53:00,75.0,-99.9,30.05,East,81,6.0,9.0,-999,-99.99,,,-99.99,,2013-06-20 07:53:00,
2013-06-20 04:02:00,75.0,-99.9,30.05,East,81,6.0,9.0,-999,-99.99,,,-99.99,,2013-06-20 08:02:00,
2013-06-20 04:12:00,75.0,-99.9,30.05,East,84,6.0,8.0,-999,-99.99,,,-99.99,,2013-06-20 08:12:00,
2013-06-20 04:22:00,75.0,-99.9,30.04,East,79,4.0,6.0,-999,-99.99,,,-99.99,,2013-06-20 08:22:00,
2013-06-20 04:34:00,75.0,-99.9,30.05,ENE,75,5.0,7.0,-999,-99.99,,,-99.99,,2013-06-20 08:34:00,
2013-06-20 04:43:00,75.0,-99.9,30.05,East,89,6.0,9.0,-999,-99.99,,,-99.99,,2013-06-20 08:43:00,
2013-06-20 04:53:00,75.0,-99.9,30.05,East,84,4.0,6.0,-999,-99.99,,,-99.99,,2013-06-20 08:53:00,
2013-06-20 05:02:00,75.0,-99.9,30.05,ENE,76,5.0,7.0,-999,-99.99,,,-99.99,,2013-06-20 09:02:00,
2013-06-20 05:12:00,75.0,-99.9,30.05,ENE,76,5.0,7.0,-999,-99.99,,,-99.99,,2013-06-20 09:12:00,
2013-06-20 05:22:00,75.0,-99.9,30.05,East,89,4.0,7.0,-999,-99.99,,,-99.99,,2013-06-20 09:22:00,
2013-06-20 05:34:00,75.0,-99.9,30.05,East,81,5.0,7.0,-999,-99.99,,,-99.99,,2013-06-20 09:34:00,
2013-06-20 05:43:00,75.0,-99.9,30.06,East,81,6.0,8.0,-999,-99.99,,,-99.99,,2013-06-20 09:43:00,
2013-06-20 05:52:00,75.0,-99.9,30.05,East,85,6.0,8.0,-999,-99.99,,,-99.99,,2013-06-20 09:52:00,
2013-06-20 06:02:00,75.0,-99.9,30.05,East,85,6.0,8.0,-999,-99.99,,,-99.99,,2013-06-20 10:02:00,
2013-06-20 06:12:00,75.0,-99.9,30.05,East,82,4.0,7.0,-999,-99.99,,,-99.99,,2013-06-20 10:12:00,
2013-06-20 06:22:00,76.0,-99.9,30.06,East,88,4.0,7.0,-999,-99.99,,,-99.99,,2013-06-20 10:22:00,
2013-06-20 06:34:00,76.0,-99.9,30.06,East,82,6.0,8.0,-999,-99.99,,,-99.99,,2013-06-20 10:34:00,
2013-06-20 06:44:00,76.0,-99.9,30.06,East,82,6.0,8.0,-999,-99.99,,,-99.99,,2013-06-20 10:44:00,
2013-06-20 06:53:00,75.0,-99.9,30.06,East,90,5.0,6.0,-999,-99.99,,,-99.99,,2013-06-20 10:53:00,
2013-06-20 07:02:00,75.0,-99.9,30.06,East,79,4.0,6.0,-999,-99.99,,,-99.99,,2013-06-20 11:02:00,
2013-06-20 07:12:00,75.0,-99.9,30.06,East,79,4.0,6.0,-999,-99.99,,,-99.99,,2013-06-20 11:12:00,
2013-06-20 07:22:00,76.0,-99.9,30.06,East,84,4.0,6.0,-999,-99.99,,,-99.99,,2013-06-20 11:22:00,
2013-06-20 07:34:00,76.0,-99.9,30.06,East,95,4.0,7.0,-999,-99.99,,,-99.99,,2013-06-20 11:34:00,
2013-06-20 07:43:00,76.0,-99.9,30.07,East,86,4.0,7.0,-999,-99.99,,,-99.99,,2013-06-20 11:43:00,
2013-06-20 07:53:00,76.0,-99.9,30.07,East,81,6.0,8.0,-999,-99.99,,,-99.99,,2013-06-20 11:53:00,
2013-06-20 08:02:00,78.0,-99.9,30.07,East,96,4.0,6.0,-999,-99.99,,,-99.99,,2013-06-20 12:02:00,
2013-06-20 08:12:00,78.0,-99.9,30.07,East,96,4.0,6.0,-999,-99.99,,,-99.99,,2013-06-20 12:12:00,
2013-06-20 08:22:00,78.0,-99.9,30.08,ESE,106,4.0,6.0,-999,-99.99,,,-99.99,,2013-06-20 12:22:00,
2013-06-20 08:34:00,78.0,-99.9,30.09,ESE,112,5.0,7.0,-999,-99.99,,,-99.99,,2013-06-20 12:34:00,
2013-06-20 08:43:00,80.0,-99.9,30.09,ESE,107,4.0,7.0,-999,-99.99,,,-99.99,,2013-06-20 12:43:00,
2013-06-20 08:53:00,80.0,-99.9,30.09,East,101,6.0,8.0,-999,-99.99,,,-99.99,,2013-06-20 12:53:00,
2013-06-20 09:02:00,80.0,-99.9,30.09,East,101,6.0,8.0,-999,-99.99,,,-99.99,,2013-06-20 13:02:00,
2013-06-20 09:12:00,80.0,-99.9,30.09,East,95,5.0,8.0,-999,-99.99,,,-99.99,,2013-06-20 13:12:00,
2013-06-20 09:22:00,81.0,-99.9,30.09,SE,128,5.0,7.0,-999,-99.99,,,-99.99,,2013-06-20 13:22:00,
2013-06-20 09:33:00,82.0,-99.9,30.09,SE,132,8.0,10.0,-999,-99.99,,,-99.99,,2013-06-20 13:33:00,
2013-06-20 09:43:00,82.0,-99.9,30.09,SE,137,7.0,10.0,-999,-99.99,,,-99.99,,2013-06-20 13:43:00,
2013-06-20 09:53:00,83.0,-99.9,30.09,SE,139,5.0,8.0,-999,-99.99,,,-99.99,,2013-06-20 13:53:00,
2013-06-20 10:02:00,83.0,-99.9,30.09,SSE,149,7.0,10.0,-999,-99.99,,,-99.99,,2013-06-20 14:02:00,
2013-06-20 10:11:00,83.0,-99.9,30.09,SSE,149,7.0,10.0,-999,-99.99,,,-99.99,,2013-06-20 14:11:00,
2013-06-20 10:22:00,83.0,-99.9,30.09,SSE,163,8.0,11.0,-999,-99.99,,,-99.99,,2013-06-20 14:22:00,
2013-06-20 10:33:00,84.0,-99.9,30.09,South,170,7.0,11.0,-999,-99.99,,,-99.99,,2013-06-20 14:33:00,
2013-06-20 10:42:00,84.0,-99.9,30.09,South,173,10.0,15.0,-999,-99.99,,,-99.99,,2013-06-20 14:42:00,
2013-06-20 10:53:00,84.0,-99.9,30.09,South,175,6.0,14.0,-999,-99.99,,,-99.99,,2013-06-20 14:53:00,
2013-06-20 11:02:00,84.0,-99.9,30.09,South,175,6.0,14.0,-999,-99.99,,,-99.99,,2013-06-20 15:02:00,
2013-06-20 11:12:00,85.0,-99.9,30.09,SSW,213,2.0,5.0,-999,-99.99,,,-99.99,,2013-06-20 15:12:00,
2013-06-20 11:22:00,84.0,-99.9,30.10,SW,224,6.0,9.0,-999,-99.99,,,-99.99,,2013-06-20 15:22:00,
2013-06-20 11:33:00,85.0,-99.9,30.10,SW,217,4.0,6.0,-999,-99.99,,,-99.99,,2013-06-20 15:33:00,
2013-06-20 11:43:00,84.0,-99.9,30.10,SW,229,6.0,9.0,-999,-99.99,,,-99.99,,2013-06-20 15:43:00,
2013-06-20 11:53:00,85.0,-99.9,30.10,SW,224,7.0,11.0,-999,-99.99,,,-99.99,,2013-06-20 15:53:00,
2013-06-20 12:02:00,85.0,-99.9,30.10,SW,224,7.0,11.0,-999,-99.99,,,-99.99,,2013-06-20 16:02:00,
2013-06-20 12:12:00,87.0,-99.9,30.11,SSW,206,2.0,9.0,-999,-99.99,,,-99.99,,2013-06-20 16:12:00,
2013-06-20 12:22:00,87.0,-99.9,30.11,SSW,195,2.0,7.0,-999,-99.99,,,-99.99,,2013-06-20 16:22:00,
2013-06-20 12:33:00,86.0,-99.9,30.11,SSW,202,2.0,6.0,-999,-99.99,,,-99.99,,2013-06-20 16:33:00,
2013-06-20 12:43:00,86.0,-99.9,30.11,SSW,202,2.0,6.0,-999,-99.99,,,-99.99,,2013-06-20 16:43:00,
2013-06-20 12:53:00,87.0,-99.9,30.11,SSW,203,2.0,6.0,-999,-99.99,,,-99.99,,2013-06-20 16:53:00,
2013-06-20 13:02:00,87.0,-99.9,30.10,South,190,2.0,4.0,-999,-99.99,,,-99.99,,2013-06-20 17:02:00,
2013-06-20 13:12:00,87.0,-99.9,30.10,South,191,2.0,4.0,-999,-99.99,,,-99.99,,2013-06-20 17:12:00,
2013-06-20 13:22:00,87.0,-99.9,30.11,South,190,2.0,5.0,-999,-99.99,,,-99.99,,2013-06-20 17:22:00,
2013-06-20 13:33:00,87.0,-99.9,30.10,SSW,207,4.0,8.0,-999,-99.99,,,-99.99,,2013-06-20 17:33:00,
2013-06-20 13:43:00,87.0,-99.9,30.10,SSW,196,3.0,8.0,-999,-99.99,,,-99.99,,2013-06-20 17:43:00,
2013-06-20 13:53:00,87.0,-99.9,30.10,SSW,197,2.0,6.0,-999,-99.99,,,-99.99,,2013-06-20 17:53:00,
2013-06-20 14:01:00,87.0,-99.9,30.10,SSW,205,3.0,7.0,-999,-99.99,,,-99.99,,2013-06-20 18:01:00,
2013-06-20 14:12:00,87.0,-99.9,30.10,SSW,205,3.0,7.0,-999,-99.99,,,-99.99,,2013-06-20 18:12:00,
2013-06-20 14:22:00,87.0,-99.9,30.09,South,191,3.0,6.0,-999,-99.99,,,-99.99,,2013-06-20 18:22:00,
2013-06-20 14:34:00,87.0,-99.9,30.10,SSW,203,3.0,5.0,-999,-99.99,,,-99.99,,2013-06-20 18:34:00,
2013-06-20 14:43:00,87.0,-99.9,30.10,SW,216,4.0,15.0,-999,-99.99,,,-99.99,,2013-06-20 18:43:00,
2013-06-20 14:53:00,86.0,-99.9,30.10,SW,230,11.0,14.0,-999,-99.99,,,-99.99,,2013-06-20 18:53:00,
2013-06-20 15:02:00,86.0,-99.9,30.10,SW,230,11.0,14.0,-999,-99.99,,,-99.99,,2013-06-20 19:02:00,
2013-06-20 15:11:00,86.0,-99.9,30.10,SW,230,11.0,14.0,-999,-99.99,,,-99.99,,2013-06-20 19:11:00,
2013-06-20 15:44:00,86.0,-99.9,30.08,WSW,252,10.0,11.0,-999,-99.99,,,-99.99,,2013-06-20 19:44:00,
2013-06-20 15:53:00,86.0,-99.9,30.08,West,260,8.0,11.0,-999,-99.99,,,-99.99,,2013-06-20 19:53:00,
2013-06-20 16:02:00,86.0,-99.9,30.08,West,260,8.0,11.0,-999,-99.99,,,-99.99,,2013-06-20 20:02:00,
2013-06-20 16:11:00,86.0,-99.9,30.07,WSW,249,9.0,11.0,-999,-99.99,,,-99.99,,2013-06-20 20:11:00,
2013-06-20 16:22:00,85.0,-99.9,30.07,WSW,253,9.0,10.0,-999,-99.99,,,-99.99,,2013-06-20 20:22:00,
2013-06-20 16:33:00,86.0,-99.9,30.07,West,274,7.0,9.0,-999,-99.99,,,-99.99,,2013-06-20 20:33:00,
2013-06-20 16:43:00,86.0,-99.9,30.07,West,265,6.0,9.0,-999,-99.99,,,-99.99,,2013-06-20 20:43:00,